Terminal Aerodrome Forecast
Issued by NWS Wilmington, NC

Home | Current Version | Previous Version | Text Only | Print | Product List | Glossary On
Versions: 1 2 3 4 5 6 7 8 9 10 11 12 13 14
000
FTUS42 KILM 310534
TAFILM
TAF
KILM 310534Z 3106/0106 12003KT P6SM -RA SCT025 BKN050 OVC080
     FM311300 10004KT P6SM -SHRA SCT025 OVC050
     FM311800 14010G16KT P6SM -RA SCT025 BKN050 OVC100
     FM010000 16004KT P6SM OVC025=

USA.gov is the U.S. government's official web portal to all federal, state and local government web resources and services.